sensor_id;sensor_type;location;lat;lon;timestamp;P1;durP1;ratioP1;P2;durP2;ratioP2
29344;SDS011;16339;48.748;2.222;2023-07-31T00:00:05;7.63;;;3.35;;
29344;SDS011;16339;48.748;2.222;2023-07-31T00:02:35;14.00;;;3.77;;
29344;SDS011;16339;48.748;2.222;2023-07-31T00:05:04;7.88;;;3.83;;
29344;SDS011;16339;48.748;2.222;2023-07-31T00:07:33;9.48;;;3.35;;
29344;SDS011;16339;48.748;2.222;2023-07-31T00:10:02;13.65;;;3.88;;
29344;SDS011;16339;48.748;2.222;2023-07-31T00:12:33;6.50;;;3.00;;
29344;SDS011;16339;48.748;2.222;2023-07-31T00:20:42;12.45;;;3.13;;
29344;SDS011;16339;48.748;2.222;2023-07-31T00:23:11;19.08;;;3.47;;
29344;SDS011;16339;48.748;2.222;2023-07-31T00:25:39;7.90;;;3.35;;
29344;SDS011;16339;48.748;2.222;2023-07-31T00:28:11;6.20;;;3.38;;
29344;SDS011;16339;48.748;2.222;2023-07-31T00:33:08;10.45;;;3.60;;
29344;SDS011;16339;48.748;2.222;2023-07-31T00:35:36;8.85;;;3.42;;
29344;SDS011;16339;48.748;2.222;2023-07-31T00:38:05;13.63;;;3.45;;
29344;SDS011;16339;48.748;2.222;2023-07-31T00:40:34;8.07;;;3.35;;
29344;SDS011;16339;48.748;2.222;2023-07-31T00:43:04;7.07;;;3.42;;
29344;SDS011;16339;48.748;2.222;2023-07-31T00:45:35;9.40;;;3.30;;
29344;SDS011;16339;48.748;2.222;2023-07-31T00:50:33;9.68;;;3.35;;
29344;SDS011;16339;48.748;2.222;2023-07-31T00:53:03;11.43;;;3.53;;
29344;SDS011;16339;48.748;2.222;2023-07-31T00:55:32;10.85;;;3.42;;
29344;SDS011;16339;48.748;2.222;2023-07-31T00:58:01;9.48;;;3.28;;
29344;SDS011;16339;48.748;2.222;2023-07-31T01:00:30;7.57;;;3.63;;
29344;SDS011;16339;48.748;2.222;2023-07-31T01:03:03;8.60;;;3.95;;
29344;SDS011;16339;48.748;2.222;2023-07-31T01:05:33;8.68;;;3.42;;
29344;SDS011;16339;48.748;2.222;2023-07-31T01:08:12;9.13;;;3.50;;
29344;SDS011;16339;48.748;2.222;2023-07-31T01:10:48;15.40;;;3.80;;
29344;SDS011;16339;48.748;2.222;2023-07-31T01:13:18;10.20;;;3.10;;
29344;SDS011;16339;48.748;2.222;2023-07-31T01:15:48;10.27;;;3.47;;
29344;SDS011;16339;48.748;2.222;2023-07-31T01:18:19;9.82;;;3.80;;
29344;SDS011;16339;48.748;2.222;2023-07-31T01:26:19;11.00;;;3.28;;
29344;SDS011;16339;48.748;2.222;2023-07-31T01:28:53;9.68;;;3.28;;
29344;SDS011;16339;48.748;2.222;2023-07-31T01:31:28;7.68;;;3.58;;
29344;SDS011;16339;48.748;2.222;2023-07-31T01:33:59;10.05;;;3.85;;
29344;SDS011;16339;48.748;2.222;2023-07-31T01:36:29;12.80;;;3.30;;
29344;SDS011;16339;48.748;2.222;2023-07-31T01:38:59;6.65;;;3.45;;
29344;SDS011;16339;48.748;2.222;2023-07-31T01:41:31;7.65;;;3.35;;
29344;SDS011;16339;48.748;2.222;2023-07-31T01:46:28;10.77;;;3.45;;
29344;SDS011;16339;48.748;2.222;2023-07-31T01:48:57;12.35;;;3.38;;
29344;SDS011;16339;48.748;2.222;2023-07-31T01:51:26;9.07;;;3.63;;
29344;SDS011;16339;48.748;2.222;2023-07-31T01:53:54;10.15;;;3.40;;
29344;SDS011;16339;48.748;2.222;2023-07-31T01:56:23;8.38;;;3.63;;
29344;SDS011;16339;48.748;2.222;2023-07-31T01:58:54;8.30;;;3.50;;
29344;SDS011;16339;48.748;2.222;2023-07-31T02:03:51;11.85;;;3.40;;
29344;SDS011;16339;48.748;2.222;2023-07-31T02:06:20;10.27;;;3.47;;
29344;SDS011;16339;48.748;2.222;2023-07-31T02:08:49;10.98;;;3.63;;
29344;SDS011;16339;48.748;2.222;2023-07-31T02:11:17;9.88;;;2.83;;
29344;SDS011;16339;48.748;2.222;2023-07-31T02:13:46;10.68;;;3.17;;
29344;SDS011;16339;48.748;2.222;2023-07-31T02:16:17;9.27;;;2.92;;
29344;SDS011;16339;48.748;2.222;2023-07-31T02:21:14;10.73;;;2.97;;
29344;SDS011;16339;48.748;2.222;2023-07-31T02:23:43;8.88;;;2.83;;
29344;SDS011;16339;48.748;2.222;2023-07-31T02:26:12;10.25;;;3.15;;
29344;SDS011;16339;48.748;2.222;2023-07-31T02:28:41;13.55;;;2.90;;
29344;SDS011;16339;48.748;2.222;2023-07-31T02:31:09;6.47;;;2.65;;
29344;SDS011;16339;48.748;2.222;2023-07-31T02:33:41;6.50;;;3.30;;
29344;SDS011;16339;48.748;2.222;2023-07-31T02:38:38;9.30;;;2.42;;
29344;SDS011;16339;48.748;2.222;2023-07-31T02:41:07;7.03;;;2.97;;
29344;SDS011;16339;48.748;2.222;2023-07-31T02:43:35;7.55;;;2.83;;
29344;SDS011;16339;48.748;2.222;2023-07-31T02:46:04;11.32;;;2.78;;
29344;SDS011;16339;48.748;2.222;2023-07-31T02:48:33;9.90;;;3.00;;
29344;SDS011;16339;48.748;2.222;2023-07-31T02:51:04;14.38;;;3.17;;
29344;SDS011;16339;48.748;2.222;2023-07-31T02:56:01;5.68;;;2.80;;
29344;SDS011;16339;48.748;2.222;2023-07-31T02:58:30;10.73;;;3.30;;
29344;SDS011;16339;48.748;2.222;2023-07-31T03:00:58;9.82;;;3.30;;
29344;SDS011;16339;48.748;2.222;2023-07-31T03:03:27;10.10;;;2.83;;
29344;SDS011;16339;48.748;2.222;2023-07-31T03:05:56;7.85;;;2.70;;
29344;SDS011;16339;48.748;2.222;2023-07-31T03:08:27;12.02;;;3.00;;
29344;SDS011;16339;48.748;2.222;2023-07-31T03:13:24;10.50;;;2.95;;
29344;SDS011;16339;48.748;2.222;2023-07-31T03:15:53;9.30;;;3.13;;
29344;SDS011;16339;48.748;2.222;2023-07-31T03:18:22;8.23;;;3.00;;
29344;SDS011;16339;48.748;2.222;2023-07-31T03:20:50;11.02;;;3.38;;
29344;SDS011;16339;48.748;2.222;2023-07-31T03:23:19;10.77;;;3.03;;
29344;SDS011;16339;48.748;2.222;2023-07-31T03:26:00;8.35;;;3.13;;
29344;SDS011;16339;48.748;2.222;2023-07-31T03:28:30;8.05;;;2.95;;
29344;SDS011;16339;48.748;2.222;2023-07-31T03:30:58;8.35;;;3.17;;
29344;SDS011;16339;48.748;2.222;2023-07-31T03:33:27;11.38;;;3.22;;
29344;SDS011;16339;48.748;2.222;2023-07-31T03:35:56;8.73;;;3.08;;
29344;SDS011;16339;48.748;2.222;2023-07-31T03:38:25;7.25;;;3.38;;
29344;SDS011;16339;48.748;2.222;2023-07-31T03:40:54;10.65;;;2.97;;
29344;SDS011;16339;48.748;2.222;2023-07-31T03:43:26;5.18;;;2.63;;
29344;SDS011;16339;48.748;2.222;2023-07-31T03:48:23;5.25;;;2.70;;
29344;SDS011;16339;48.748;2.222;2023-07-31T03:50:52;11.00;;;3.05;;
29344;SDS011;16339;48.748;2.222;2023-07-31T03:53:21;6.75;;;3.03;;
29344;SDS011;16339;48.748;2.222;2023-07-31T03:55:49;9.82;;;3.50;;
29344;SDS011;16339;48.748;2.222;2023-07-31T03:58:18;12.35;;;3.25;;
29344;SDS011;16339;48.748;2.222;2023-07-31T04:00:49;9.50;;;3.20;;
29344;SDS011;16339;48.748;2.222;2023-07-31T04:05:46;9.05;;;3.10;;
29344;SDS011;16339;48.748;2.222;2023-07-31T04:08:15;11.13;;;2.95;;
29344;SDS011;16339;48.748;2.222;2023-07-31T04:10:44;7.63;;;2.90;;
29344;SDS011;16339;48.748;2.222;2023-07-31T04:13:13;9.10;;;2.90;;
29344;SDS011;16339;48.748;2.222;2023-07-31T04:15:41;10.75;;;3.38;;
29344;SDS011;16339;48.748;2.222;2023-07-31T04:18:12;6.65;;;3.05;;
29344;SDS011;16339;48.748;2.222;2023-07-31T04:20:41;7.35;;;2.97;;
29344;SDS011;16339;48.748;2.222;2023-07-31T04:23:10;8.02;;;2.63;;
29344;SDS011;16339;48.748;2.222;2023-07-31T04:25:39;10.77;;;2.90;;
29344;SDS011;16339;48.748;2.222;2023-07-31T04:28:09;12.88;;;3.70;;
29344;SDS011;16339;48.748;2.222;2023-07-31T04:30:38;7.72;;;3.30;;
29344;SDS011;16339;48.748;2.222;2023-07-31T04:33:07;11.25;;;3.50;;
29344;SDS011;16339;48.748;2.222;2023-07-31T04:35:38;9.98;;;2.85;;
29344;SDS011;16339;48.748;2.222;2023-07-31T04:40:35;10.13;;;3.35;;
29344;SDS011;16339;48.748;2.222;2023-07-31T04:43:06;13.52;;;3.63;;
29344;SDS011;16339;48.748;2.222;2023-07-31T04:45:34;9.25;;;3.50;;
29344;SDS011;16339;48.748;2.222;2023-07-31T04:48:03;14.85;;;4.35;;
29344;SDS011;16339;48.748;2.222;2023-07-31T04:50:32;9.88;;;3.75;;
29344;SDS011;16339;48.748;2.222;2023-07-31T04:53:03;14.77;;;4.65;;
29344;SDS011;16339;48.748;2.222;2023-07-31T04:55:32;11.60;;;3.95;;
29344;SDS011;16339;48.748;2.222;2023-07-31T04:58:01;16.50;;;4.43;;
29344;SDS011;16339;48.748;2.222;2023-07-31T05:00:30;13.77;;;4.20;;
29344;SDS011;16339;48.748;2.222;2023-07-31T05:02:58;11.68;;;3.97;;
29344;SDS011;16339;48.748;2.222;2023-07-31T05:05:27;13.98;;;4.93;;
29344;SDS011;16339;48.748;2.222;2023-07-31T05:07:56;12.93;;;4.47;;
29344;SDS011;16339;48.748;2.222;2023-07-31T05:10:27;12.02;;;4.57;;
29344;SDS011;16339;48.748;2.222;2023-07-31T05:12:56;13.95;;;4.78;;
29344;SDS011;16339;48.748;2.222;2023-07-31T05:15:25;13.30;;;5.20;;
29344;SDS011;16339;48.748;2.222;2023-07-31T05:17:53;13.93;;;5.03;;
29344;SDS011;16339;48.748;2.222;2023-07-31T05:20:23;17.92;;;5.07;;
29344;SDS011;16339;48.748;2.222;2023-07-31T05:22:52;20.00;;;5.22;;
29344;SDS011;16339;48.748;2.222;2023-07-31T05:25:21;20.02;;;5.30;;
29344;SDS011;16339;48.748;2.222;2023-07-31T05:27:54;14.35;;;5.00;;
29344;SDS011;16339;48.748;2.222;2023-07-31T05:30:23;16.08;;;5.45;;
29344;SDS011;16339;48.748;2.222;2023-07-31T05:32:52;17.75;;;5.57;;
29344;SDS011;16339;48.748;2.222;2023-07-31T05:35:20;18.45;;;5.55;;
29344;SDS011;16339;48.748;2.222;2023-07-31T05:37:49;14.95;;;5.57;;
29344;SDS011;16339;48.748;2.222;2023-07-31T05:40:18;18.38;;;5.78;;
29344;SDS011;16339;48.748;2.222;2023-07-31T05:42:47;26.48;;;5.85;;
29344;SDS011;16339;48.748;2.222;2023-07-31T05:45:18;10.65;;;5.30;;
29344;SDS011;16339;48.748;2.222;2023-07-31T05:50:15;10.48;;;5.43;;
29344;SDS011;16339;48.748;2.222;2023-07-31T05:52:44;14.73;;;5.47;;
29344;SDS011;16339;48.748;2.222;2023-07-31T05:55:12;18.73;;;5.70;;
29344;SDS011;16339;48.748;2.222;2023-07-31T05:57:41;16.73;;;5.70;;
29344;SDS011;16339;48.748;2.222;2023-07-31T06:00:11;24.10;;;6.07;;
29344;SDS011;16339;48.748;2.222;2023-07-31T06:02:43;19.05;;;5.57;;
29344;SDS011;16339;48.748;2.222;2023-07-31T06:07:41;19.80;;;5.75;;
29344;SDS011;16339;48.748;2.222;2023-07-31T06:10:09;18.77;;;5.60;;
29344;SDS011;16339;48.748;2.222;2023-07-31T06:12:38;18.42;;;5.85;;
29344;SDS011;16339;48.748;2.222;2023-07-31T06:15:07;27.98;;;5.95;;
29344;SDS011;16339;48.748;2.222;2023-07-31T06:17:36;16.20;;;5.43;;
29344;SDS011;16339;48.748;2.222;2023-07-31T06:20:09;22.95;;;6.13;;
29344;SDS011;16339;48.748;2.222;2023-07-31T06:22:38;18.80;;;5.90;;
29344;SDS011;16339;48.748;2.222;2023-07-31T06:25:07;25.65;;;6.90;;
29344;SDS011;16339;48.748;2.222;2023-07-31T06:27:35;20.40;;;6.32;;
29344;SDS011;16339;48.748;2.222;2023-07-31T06:30:07;20.33;;;5.70;;
29344;SDS011;16339;48.748;2.222;2023-07-31T06:32:36;19.80;;;5.65;;
29344;SDS011;16339;48.748;2.222;2023-07-31T06:35:06;15.65;;;5.43;;
29344;SDS011;16339;48.748;2.222;2023-07-31T06:37:37;18.50;;;6.28;;
29344;SDS011;16339;48.748;2.222;2023-07-31T06:42:38;20.15;;;5.82;;
29344;SDS011;16339;48.748;2.222;2023-07-31T06:45:07;19.95;;;5.82;;
29344;SDS011;16339;48.748;2.222;2023-07-31T06:47:37;21.60;;;5.80;;
29344;SDS011;16339;48.748;2.222;2023-07-31T06:50:06;22.90;;;6.43;;
29344;SDS011;16339;48.748;2.222;2023-07-31T06:52:40;21.08;;;5.85;;
29344;SDS011;16339;48.748;2.222;2023-07-31T06:55:16;24.25;;;6.82;;
29344;SDS011;16339;48.748;2.222;2023-07-31T06:57:46;17.00;;;6.38;;
29344;SDS011;16339;48.748;2.222;2023-07-31T07:00:16;15.13;;;6.10;;
29344;SDS011;16339;48.748;2.222;2023-07-31T07:02:46;19.42;;;6.53;;
29344;SDS011;16339;48.748;2.222;2023-07-31T07:05:18;19.52;;;6.95;;
29344;SDS011;16339;48.748;2.222;2023-07-31T07:07:48;20.02;;;6.50;;
29344;SDS011;16339;48.748;2.222;2023-07-31T07:10:17;25.20;;;6.20;;
29344;SDS011;16339;48.748;2.222;2023-07-31T07:12:47;20.30;;;6.25;;
29344;SDS011;16339;48.748;2.222;2023-07-31T07:15:16;16.70;;;6.45;;
29344;SDS011;16339;48.748;2.222;2023-07-31T07:17:45;24.48;;;6.85;;
29344;SDS011;16339;48.748;2.222;2023-07-31T07:20:19;26.65;;;6.60;;
29344;SDS011;16339;48.748;2.222;2023-07-31T07:22:48;19.13;;;6.18;;
29344;SDS011;16339;48.748;2.222;2023-07-31T07:25:17;19.60;;;6.55;;
29344;SDS011;16339;48.748;2.222;2023-07-31T07:27:49;25.15;;;7.07;;
29344;SDS011;16339;48.748;2.222;2023-07-31T07:30:17;19.52;;;6.35;;
29344;SDS011;16339;48.748;2.222;2023-07-31T07:32:46;18.92;;;6.55;;
29344;SDS011;16339;48.748;2.222;2023-07-31T07:35:15;20.02;;;5.63;;
29344;SDS011;16339;48.748;2.222;2023-07-31T07:37:46;18.40;;;6.10;;
29344;SDS011;16339;48.748;2.222;2023-07-31T07:40:16;17.23;;;6.43;;
29344;SDS011;16339;48.748;2.222;2023-07-31T07:42:45;22.92;;;6.75;;
29344;SDS011;16339;48.748;2.222;2023-07-31T07:45:14;18.83;;;6.47;;
29344;SDS011;16339;48.748;2.222;2023-07-31T07:47:43;17.77;;;5.78;;
29344;SDS011;16339;48.748;2.222;2023-07-31T07:50:11;19.25;;;6.45;;
29344;SDS011;16339;48.748;2.222;2023-07-31T07:52:40;21.27;;;6.03;;
29344;SDS011;16339;48.748;2.222;2023-07-31T07:55:11;11.52;;;5.43;;
29344;SDS011;16339;48.748;2.222;2023-07-31T08:00:09;15.02;;;5.35;;
29344;SDS011;16339;48.748;2.222;2023-07-31T08:02:40;14.48;;;6.07;;
29344;SDS011;16339;48.748;2.222;2023-07-31T08:05:08;14.00;;;5.30;;
29344;SDS011;16339;48.748;2.222;2023-07-31T08:07:37;13.70;;;5.88;;
29344;SDS011;16339;48.748;2.222;2023-07-31T08:10:06;17.90;;;5.85;;
29344;SDS011;16339;48.748;2.222;2023-07-31T08:12:38;13.80;;;5.57;;
29344;SDS011;16339;48.748;2.222;2023-07-31T08:17:35;13.40;;;5.50;;
29344;SDS011;16339;48.748;2.222;2023-07-31T08:20:05;17.67;;;5.63;;
29344;SDS011;16339;48.748;2.222;2023-07-31T08:22:37;20.50;;;5.50;;
29344;SDS011;16339;48.748;2.222;2023-07-31T08:25:07;20.30;;;5.63;;
29344;SDS011;16339;48.748;2.222;2023-07-31T08:27:39;14.00;;;5.25;;
29344;SDS011;16339;48.748;2.222;2023-07-31T08:30:11;19.83;;;5.05;;
29344;SDS011;16339;48.748;2.222;2023-07-31T08:32:40;18.58;;;5.65;;
29344;SDS011;16339;48.748;2.222;2023-07-31T08:35:09;20.20;;;6.00;;
29344;SDS011;16339;48.748;2.222;2023-07-31T08:37:38;19.02;;;5.43;;
29344;SDS011;16339;48.748;2.222;2023-07-31T08:40:07;14.95;;;5.53;;
29344;SDS011;16339;48.748;2.222;2023-07-31T08:42:45;11.35;;;5.07;;
29344;SDS011;16339;48.748;2.222;2023-07-31T08:45:16;14.85;;;5.15;;
29344;SDS011;16339;48.748;2.222;2023-07-31T08:47:46;19.38;;;5.15;;
29344;SDS011;16339;48.748;2.222;2023-07-31T08:50:19;11.75;;;4.85;;
29344;SDS011;16339;48.748;2.222;2023-07-31T08:52:49;13.00;;;5.00;;
29344;SDS011;16339;48.748;2.222;2023-07-31T08:55:18;14.10;;;5.13;;
29344;SDS011;16339;48.748;2.222;2023-07-31T08:57:58;10.73;;;4.78;;
29344;SDS011;16339;48.748;2.222;2023-07-31T09:00:31;14.23;;;5.15;;
29344;SDS011;16339;48.748;2.222;2023-07-31T09:03:08;12.48;;;5.38;;
29344;SDS011;16339;48.748;2.222;2023-07-31T09:05:41;19.38;;;5.60;;
29344;SDS011;16339;48.748;2.222;2023-07-31T09:08:12;14.02;;;5.50;;
29344;SDS011;16339;48.748;2.222;2023-07-31T09:10:43;14.77;;;5.13;;
29344;SDS011;16339;48.748;2.222;2023-07-31T09:13:15;12.40;;;4.78;;
29344;SDS011;16339;48.748;2.222;2023-07-31T09:15:46;17.80;;;5.93;;
29344;SDS011;16339;48.748;2.222;2023-07-31T09:18:14;19.02;;;5.35;;
29344;SDS011;16339;48.748;2.222;2023-07-31T09:25:58;15.52;;;5.03;;
29344;SDS011;16339;48.748;2.222;2023-07-31T09:28:33;21.75;;;5.57;;
29344;SDS011;16339;48.748;2.222;2023-07-31T09:31:01;14.52;;;5.55;;
29344;SDS011;16339;48.748;2.222;2023-07-31T09:33:30;15.82;;;5.50;;
29344;SDS011;16339;48.748;2.222;2023-07-31T09:36:00;11.07;;;5.57;;
29344;SDS011;16339;48.748;2.222;2023-07-31T09:38:28;16.58;;;5.55;;
29344;SDS011;16339;48.748;2.222;2023-07-31T09:40:58;17.33;;;5.40;;
29344;SDS011;16339;48.748;2.222;2023-07-31T09:43:32;18.40;;;4.93;;
29344;SDS011;16339;48.748;2.222;2023-07-31T09:48:32;16.15;;;4.90;;
29344;SDS011;16339;48.748;2.222;2023-07-31T09:51:07;14.63;;;5.68;;
29344;SDS011;16339;48.748;2.222;2023-07-31T09:53:36;11.10;;;4.88;;
29344;SDS011;16339;48.748;2.222;2023-07-31T09:56:04;18.48;;;4.97;;
29344;SDS011;16339;48.748;2.222;2023-07-31T09:58:36;15.75;;;5.30;;
29344;SDS011;16339;48.748;2.222;2023-07-31T10:01:05;11.52;;;4.85;;
29344;SDS011;16339;48.748;2.222;2023-07-31T10:03:35;17.10;;;5.32;;
29344;SDS011;16339;48.748;2.222;2023-07-31T10:06:06;14.18;;;5.40;;
29344;SDS011;16339;48.748;2.222;2023-07-31T10:08:39;12.38;;;5.32;;
29344;SDS011;16339;48.748;2.222;2023-07-31T10:11:11;16.35;;;5.18;;
29344;SDS011;16339;48.748;2.222;2023-07-31T10:13:43;12.82;;;4.90;;
29344;SDS011;16339;48.748;2.222;2023-07-31T10:16:13;13.00;;;5.00;;
29344;SDS011;16339;48.748;2.222;2023-07-31T10:18:46;13.38;;;5.00;;
29344;SDS011;16339;48.748;2.222;2023-07-31T10:21:17;16.58;;;5.05;;
29344;SDS011;16339;48.748;2.222;2023-07-31T10:23:46;12.60;;;5.20;;
29344;SDS011;16339;48.748;2.222;2023-07-31T10:26:16;12.95;;;5.68;;
29344;SDS011;16339;48.748;2.222;2023-07-31T10:28:49;20.15;;;5.10;;
29344;SDS011;16339;48.748;2.222;2023-07-31T10:31:22;18.98;;;6.10;;
29344;SDS011;16339;48.748;2.222;2023-07-31T10:33:52;14.80;;;6.35;;
29344;SDS011;16339;48.748;2.222;2023-07-31T10:36:22;13.90;;;5.43;;
29344;SDS011;16339;48.748;2.222;2023-07-31T10:38:52;11.52;;;5.32;;
29344;SDS011;16339;48.748;2.222;2023-07-31T10:41:28;16.15;;;5.50;;
29344;SDS011;16339;48.748;2.222;2023-07-31T10:44:00;16.42;;;6.03;;
29344;SDS011;16339;48.748;2.222;2023-07-31T10:46:32;17.10;;;6.10;;
29344;SDS011;16339;48.748;2.222;2023-07-31T10:49:01;14.82;;;5.88;;
29344;SDS011;16339;48.748;2.222;2023-07-31T10:51:33;25.63;;;6.53;;
29344;SDS011;16339;48.748;2.222;2023-07-31T10:54:12;17.92;;;6.47;;
29344;SDS011;16339;48.748;2.222;2023-07-31T10:56:45;15.18;;;6.20;;
29344;SDS011;16339;48.748;2.222;2023-07-31T10:59:16;17.52;;;6.35;;
29344;SDS011;16339;48.748;2.222;2023-07-31T11:01:51;19.25;;;6.47;;
29344;SDS011;16339;48.748;2.222;2023-07-31T11:04:22;22.25;;;6.68;;
29344;SDS011;16339;48.748;2.222;2023-07-31T11:06:55;22.83;;;6.72;;
29344;SDS011;16339;48.748;2.222;2023-07-31T11:09:25;17.50;;;6.97;;
29344;SDS011;16339;48.748;2.222;2023-07-31T11:11:57;18.15;;;7.15;;
29344;SDS011;16339;48.748;2.222;2023-07-31T11:14:29;22.80;;;6.78;;
29344;SDS011;16339;48.748;2.222;2023-07-31T11:19:26;16.60;;;6.95;;
29344;SDS011;16339;48.748;2.222;2023-07-31T11:21:55;18.40;;;6.68;;
29344;SDS011;16339;48.748;2.222;2023-07-31T11:24:24;19.80;;;7.50;;
29344;SDS011;16339;48.748;2.222;2023-07-31T11:26:55;16.05;;;7.13;;
29344;SDS011;16339;48.748;2.222;2023-07-31T11:29:27;13.65;;;6.38;;
29344;SDS011;16339;48.748;2.222;2023-07-31T11:31:58;18.77;;;6.75;;
29344;SDS011;16339;48.748;2.222;2023-07-31T11:34:29;20.27;;;7.07;;
29344;SDS011;16339;48.748;2.222;2023-07-31T11:36:57;18.70;;;6.25;;
29344;SDS011;16339;48.748;2.222;2023-07-31T11:39:26;17.50;;;6.88;;
29344;SDS011;16339;48.748;2.222;2023-07-31T11:41:58;19.73;;;6.90;;
29344;SDS011;16339;48.748;2.222;2023-07-31T11:44:27;17.10;;;6.45;;
29344;SDS011;16339;48.748;2.222;2023-07-31T11:47:13;20.48;;;5.68;;
29344;SDS011;16339;48.748;2.222;2023-07-31T11:49:41;12.90;;;5.38;;
29344;SDS011;16339;48.748;2.222;2023-07-31T11:52:11;16.83;;;5.63;;
29344;SDS011;16339;48.748;2.222;2023-07-31T11:54:41;22.05;;;5.38;;
29344;SDS011;16339;48.748;2.222;2023-07-31T11:57:10;18.85;;;5.32;;
29344;SDS011;16339;48.748;2.222;2023-07-31T11:59:41;18.38;;;5.78;;
29344;SDS011;16339;48.748;2.222;2023-07-31T12:02:10;15.60;;;5.85;;
29344;SDS011;16339;48.748;2.222;2023-07-31T12:04:39;22.60;;;5.38;;
29344;SDS011;16339;48.748;2.222;2023-07-31T12:07:08;14.95;;;5.38;;
29344;SDS011;16339;48.748;2.222;2023-07-31T12:09:37;15.00;;;5.15;;
29344;SDS011;16339;48.748;2.222;2023-07-31T12:12:07;15.27;;;5.53;;
29344;SDS011;16339;48.748;2.222;2023-07-31T12:14:38;12.77;;;5.35;;
29344;SDS011;16339;48.748;2.222;2023-07-31T12:17:12;10.85;;;5.10;;
29344;SDS011;16339;48.748;2.222;2023-07-31T12:19:45;13.40;;;5.57;;
29344;SDS011;16339;48.748;2.222;2023-07-31T12:22:16;13.23;;;4.97;;
29344;SDS011;16339;48.748;2.222;2023-07-31T12:24:44;12.70;;;5.40;;
29344;SDS011;16339;48.748;2.222;2023-07-31T12:27:14;16.30;;;5.32;;
29344;SDS011;16339;48.748;2.222;2023-07-31T12:29:46;12.48;;;5.45;;
29344;SDS011;16339;48.748;2.222;2023-07-31T12:34:47;12.80;;;5.35;;
29344;SDS011;16339;48.748;2.222;2023-07-31T12:37:16;11.98;;;5.40;;
29344;SDS011;16339;48.748;2.222;2023-07-31T12:39:45;15.65;;;5.43;;
29344;SDS011;16339;48.748;2.222;2023-07-31T12:42:13;10.75;;;5.38;;
29344;SDS011;16339;48.748;2.222;2023-07-31T12:44:47;13.25;;;5.70;;
29344;SDS011;16339;48.748;2.222;2023-07-31T12:47:16;13.35;;;5.30;;
29344;SDS011;16339;48.748;2.222;2023-07-31T12:49:54;10.38;;;5.53;;
29344;SDS011;16339;48.748;2.222;2023-07-31T12:52:24;11.65;;;5.43;;
29344;SDS011;16339;48.748;2.222;2023-07-31T12:54:53;11.40;;;4.87;;
29344;SDS011;16339;48.748;2.222;2023-07-31T12:57:22;15.45;;;5.57;;
29344;SDS011;16339;48.748;2.222;2023-07-31T12:59:55;16.92;;;6.15;;
29344;SDS011;16339;48.748;2.222;2023-07-31T13:04:53;11.32;;;5.45;;
29344;SDS011;16339;48.748;2.222;2023-07-31T13:07:21;12.38;;;5.53;;
29344;SDS011;16339;48.748;2.222;2023-07-31T13:09:50;12.43;;;5.07;;
29344;SDS011;16339;48.748;2.222;2023-07-31T13:12:19;16.55;;;5.47;;
29344;SDS011;16339;48.748;2.222;2023-07-31T13:14:48;11.98;;;5.65;;
29344;SDS011;16339;48.748;2.222;2023-07-31T13:17:20;15.73;;;5.10;;
29344;SDS011;16339;48.748;2.222;2023-07-31T13:19:48;11.75;;;5.10;;
29344;SDS011;16339;48.748;2.222;2023-07-31T13:22:17;16.50;;;4.97;;
29344;SDS011;16339;48.748;2.222;2023-07-31T13:24:46;9.35;;;4.47;;
29344;SDS011;16339;48.748;2.222;2023-07-31T13:27:15;16.25;;;5.25;;
29344;SDS011;16339;48.748;2.222;2023-07-31T13:29:48;11.45;;;4.93;;
29344;SDS011;16339;48.748;2.222;2023-07-31T13:32:17;10.63;;;4.63;;
29344;SDS011;16339;48.748;2.222;2023-07-31T13:34:51;11.02;;;4.70;;
29344;SDS011;16339;48.748;2.222;2023-07-31T13:37:20;12.50;;;4.15;;
29344;SDS011;16339;48.748;2.222;2023-07-31T13:39:48;8.10;;;4.18;;
29344;SDS011;16339;48.748;2.222;2023-07-31T13:42:23;8.60;;;4.53;;
29344;SDS011;16339;48.748;2.222;2023-07-31T13:44:53;8.73;;;3.67;;
29344;SDS011;16339;48.748;2.222;2023-07-31T13:47:26;10.30;;;3.67;;
29344;SDS011;16339;48.748;2.222;2023-07-31T13:49:56;13.10;;;3.70;;
29344;SDS011;16339;48.748;2.222;2023-07-31T13:52:25;10.65;;;3.83;;
29344;SDS011;16339;48.748;2.222;2023-07-31T13:54:53;6.28;;;3.60;;
29344;SDS011;16339;48.748;2.222;2023-07-31T13:57:22;8.95;;;3.88;;
29344;SDS011;16339;48.748;2.222;2023-07-31T14:02:26;7.05;;;3.75;;
29344;SDS011;16339;48.748;2.222;2023-07-31T14:04:55;11.80;;;4.10;;
29344;SDS011;16339;48.748;2.222;2023-07-31T14:07:26;9.02;;;3.92;;
29344;SDS011;16339;48.748;2.222;2023-07-31T14:09:55;10.95;;;3.75;;
29344;SDS011;16339;48.748;2.222;2023-07-31T14:12:34;10.93;;;3.90;;
29344;SDS011;16339;48.748;2.222;2023-07-31T14:15:05;8.73;;;4.10;;
29344;SDS011;16339;48.748;2.222;2023-07-31T14:17:37;10.15;;;4.18;;
29344;SDS011;16339;48.748;2.222;2023-07-31T14:20:06;11.70;;;4.55;;
29344;SDS011;16339;48.748;2.222;2023-07-31T14:22:36;12.83;;;4.10;;
29344;SDS011;16339;48.748;2.222;2023-07-31T14:25:08;11.10;;;4.68;;
29344;SDS011;16339;48.748;2.222;2023-07-31T14:27:37;13.27;;;4.20;;
29344;SDS011;16339;48.748;2.222;2023-07-31T14:30:08;9.25;;;4.68;;
29344;SDS011;16339;48.748;2.222;2023-07-31T14:32:40;14.52;;;4.93;;
29344;SDS011;16339;48.748;2.222;2023-07-31T14:35:10;18.25;;;5.55;;
29344;SDS011;16339;48.748;2.222;2023-07-31T14:37:44;8.70;;;4.78;;
29344;SDS011;16339;48.748;2.222;2023-07-31T14:40:13;11.77;;;5.25;;
29344;SDS011;16339;48.748;2.222;2023-07-31T14:42:42;12.32;;;4.95;;
29344;SDS011;16339;48.748;2.222;2023-07-31T14:45:11;13.00;;;5.25;;
29344;SDS011;16339;48.748;2.222;2023-07-31T14:47:43;9.88;;;5.20;;
29344;SDS011;16339;48.748;2.222;2023-07-31T14:50:11;12.05;;;5.13;;
29344;SDS011;16339;48.748;2.222;2023-07-31T14:52:40;13.23;;;5.05;;
29344;SDS011;16339;48.748;2.222;2023-07-31T14:55:09;12.27;;;4.57;;
29344;SDS011;16339;48.748;2.222;2023-07-31T14:57:37;10.93;;;4.53;;
29344;SDS011;16339;48.748;2.222;2023-07-31T15:00:07;11.50;;;4.20;;
29344;SDS011;16339;48.748;2.222;2023-07-31T15:02:36;18.27;;;5.75;;
29344;SDS011;16339;48.748;2.222;2023-07-31T15:05:08;14.43;;;7.03;;
29344;SDS011;16339;48.748;2.222;2023-07-31T15:07:37;15.88;;;7.75;;
29344;SDS011;16339;48.748;2.222;2023-07-31T15:10:06;9.85;;;5.07;;
29344;SDS011;16339;48.748;2.222;2023-07-31T15:12:36;12.63;;;5.18;;
29344;SDS011;16339;48.748;2.222;2023-07-31T15:15:07;10.10;;;4.50;;
29344;SDS011;16339;48.748;2.222;2023-07-31T15:17:36;13.73;;;4.65;;
29344;SDS011;16339;48.748;2.222;2023-07-31T15:20:09;12.88;;;4.75;;
29344;SDS011;16339;48.748;2.222;2023-07-31T15:22:40;10.48;;;4.03;;
29344;SDS011;16339;48.748;2.222;2023-07-31T15:25:09;14.43;;;4.28;;
29344;SDS011;16339;48.748;2.222;2023-07-31T15:27:38;8.68;;;4.20;;
29344;SDS011;16339;48.748;2.222;2023-07-31T15:30:09;12.30;;;4.50;;
29344;SDS011;16339;48.748;2.222;2023-07-31T15:32:38;9.43;;;4.05;;
29344;SDS011;16339;48.748;2.222;2023-07-31T15:35:10;10.55;;;4.95;;
29344;SDS011;16339;48.748;2.222;2023-07-31T15:37:39;8.70;;;4.90;;
29344;SDS011;16339;48.748;2.222;2023-07-31T15:40:09;10.20;;;5.28;;
29344;SDS011;16339;48.748;2.222;2023-07-31T15:42:39;14.43;;;5.45;;
29344;SDS011;16339;48.748;2.222;2023-07-31T15:45:08;11.05;;;5.10;;
29344;SDS011;16339;48.748;2.222;2023-07-31T15:47:38;9.87;;;5.13;;
29344;SDS011;16339;48.748;2.222;2023-07-31T15:50:10;10.80;;;5.32;;
29344;SDS011;16339;48.748;2.222;2023-07-31T15:52:39;10.75;;;5.20;;
29344;SDS011;16339;48.748;2.222;2023-07-31T15:55:07;13.55;;;6.55;;
29344;SDS011;16339;48.748;2.222;2023-07-31T15:57:37;11.65;;;4.97;;
29344;SDS011;16339;48.748;2.222;2023-07-31T16:00:06;10.73;;;5.43;;
29344;SDS011;16339;48.748;2.222;2023-07-31T16:02:36;12.93;;;5.40;;